Timeline UpdatesTrip UpdatesNews PostsPvt PostsTravel TipsAdmin PostsConv PostsFollowed PostsChat RequestsBlog PostsPNR Posts

Disclaimer
Search
 
 
Wed Apr 16, 2014 18:34:45 ISTHomeTrainsΣChainsAtlasPNRForumGalleryNewsFAQTripsMembersLoginFeedback
No Recent News for this Train
Other Trains in the News **new
Latest...
.
Tue Sep 17, 2013 (05:07PM)
⇐ Return Journey: Train# 37927

37926/Katwa-Howrah Local

Sep 17 2013 (5:06PM)
Change Departure Station:
Change Arrival Station:
Post a Train Travel TipPost a Train Travel Tip **new
Post a Comment/Question/Picture/VideoPost a Comment/Question/Picture/Video
Pantry/Catering
✕ NO Pantry Car
✕ NO Catering
RSA - Rake Sharing
Rake/Coach Composition
Loco
News    PNR    Forum    Time-Table    Availability    Fare Chart    Map    Arr/Dep History    Trips    Gallery    ΣChains    X/O    Timeline    
Travel Time: 2h 43m    30 halts    Distance: 97 km    Avg Speed: 35 km/hr
Type: EMU - Kolkata
Zone: ER/Eastern
Departs @ 16:05 (Avg 36m late)
Platform# ???
SMTWTFS
Samudra Garh/SMAE 
Arrives @ 18:48 (Avg 13m late)
Platform# ???
SMTWTFS
Kolkata Howrah Junction/HWH 

30 halts. 32 intermediate Stations between Samudra Garh and Kolkata Howrah Junction

Hide intermediate Stations  Show Old Time-Table

#CodeStation NameX/OArrivesAvgDepartsAvgHaltPFDay#KmSpeedElevZoneAddress
1KWAEKatwa Junction (5)  -15:00+13--1-47.46821mERDist - Bardhaman, West Bengal
2DHAEDainhat (4)  15:06+1715:07+201m--1-40.610219mERDaihaat Rd, West Bengal
3SHBASahebtala  15:09+2315:10+231m--1-37.21918mERSahebtala, West Bengal
4AGAEAgradwip (2)  15:19+1915:20+201m--1-34.49818mERDist - Bardhaman, West Bengal
5PTAEPatuli (2)  15:23+2215:24+221m--1-29.57518mERDist - bardhaman, West Bengal
6BQYBelerhat  15:28+2315:29+231m--1-24.58219mERJajneswarpur, West Bengal
7LKXLakshmipur (2)  15:31+2315:32+241m--1-21.89414mERDist - burdhaman, West Bengal
8MTFAMertala Phaleya  15:34+2615:35+261m--1-18.69216mERMertala Phaleya, West Bengal
9PSAEPurbasthali (2)  15:37+2615:38+271m--1-15.67019mERDist - Bardhaman, West Bengal
10BFZBhandartikuri  15:40+2815:41+311m--1-13.210321mERDist - Bardhaman, West Bengal
11VSPRBishnupriya (1)  15:43-15:44-1m--1-9.83015mERDist - nadia, West Bengal
12NDAENabadwip Dham (3)  15:48+3115:50+332m--1-7.82515mERDist - Nadia, West Bengal
13KLNTKalinagar (1)  16:00+2816:01+301m11-3.7749mERDist - Nadia, West Bengal
14SMAE»Samudra Garh»  16:04+3316:05+361m--10.07316mERDist - Bardhaman, West Bengal
15NDIMNandaigram Halt  16:08-16:09-1m--13.61014mERState Highway 6, West Bengal
16DTAEDhatrigram  16:28+2216:29+241m--16.79116mERDhatrigram, West Bengal
17BGRABaghnapara (2)  16:32+2516:33+251m--111.34916mERKalna-Memari Rd, West Bengal
18ABKAAmbika Kalna (4)  16:38+2616:39+261m--115.48512mERKalna, West Bengal
19GPAEGuptipara  16:44+2816:45+281m--122.56314mERGuptipara Railway Station, West Bengal
20BHLABehula  16:47+2816:48+281m--124.67316mERDist - Hooghly, West Bengal
21SOAESomra Bazar (2)  16:52+2816:53+281m--129.58613mERState Highway 6, West Bengal
22BGAEBalagarh  16:55+2616:56+261m--132.31913mERBalagarh, West Bengal
23JITJirat (3)  17:03+2517:04+251m--134.512617mERdist - hooghly, West Bengal
24KMAEKhamargachhi  17:07+2817:08+281m--140.85914mERKhamargachi, West Bengal
25DMLEDumurdaha  17:10+2817:11+281m--142.89815mERDumurdahadham, West Bengal
26KJUKuntighat  17:13+2917:14+291m--146.16717mERKuntighat Railway Station, West Bengal
27TBAETribeni  17:17+2817:18+281m--149.47416mERTribeni, West Bengal
28BSAEBansh Baria  17:21+3117:22+311m--153.11413mERBansberia, West Bengal
29BDCBandel Junction (7)  17:41+2017:43+212m--157.611814mERdist - HOOGHLY, West Bengal
30HGYHooghly (3)  17:44+2217:45+221m--159.55414mERDist - Hooghly, West Bengal
31CNSChuchura (3)  17:47+2317:48+231m--161.39015mERDist - HOOGHLY - 712102, West Bengal
32CGRChandan Nagar (3)  17:50+2317:51+231m--164.37116mERDist -HOOGHLY - 712136, West Bengal
33MUUMankundu (3)  17:53+2417:54+241m--166.713313mERChandannagar, West Bengal
34BHRBhadreshwar (3)  17:55+2417:56+241m--168.95614mERBhadreswar, West Bengal
35BBAEBaidyabati (3)  18:00+2318:01+231m--172.62813mERBaidyabati, West Bengal
36SHESeoraphuli Junction (6)  18:06+2218:07+231m--174.97613mERBaidyabati, West Bengal
37SRPSerampore (4)  18:09+2218:10+221m--177.56411mERdist - hooghly, West Bengal
38RISRishra (3)  18:13+2218:14+221m--180.74211mERRishra, West Bengal
39KOGKonnagar (3)  18:18+2218:19+221m--183.511510mERDist: Howrah, West Bengal
40HMZHind Motor (3)  18:20+2218:21+221m--185.4549mERHindmotor, West Bengal
41UPAUttarpara (3)  18:23+2218:24+221m--187.2749mERDist - Hooghly, West Bengal
42BLYBally (6)  18:25+2218:26+221m--188.51218mERDist - Howrah, West Bengal
43BEQBelur (5)  18:27+2118:28+211m--190.5508mERHowrah, West Bengal
44LLHLiluah (5)  18:30+2218:31+221m--192.11610mERHowrah, West Bengal
44.1SYAELiluah Sorting  18:36-18:36-  193.4 165mERLiluah Sorting, West Bengal
44.2HWHGHowrah Goods Cabin  18:44-18:44-  195.7 166mERHowrah, West Bengal
45HWH•Kolkata Howrah Junction (23)•  18:48+13---196.7-10mERHowrah 711101, West Bengal
Scroll to Top
Scroll to Bottom